createdAt,value
2022-07-30T00:04:25.441Z,23.46
2022-07-30T00:09:26.968Z,23.43
2022-07-30T00:14:38.786Z,23.43
2022-07-30T00:19:42.771Z,23.40
2022-07-30T00:24:46.450Z,23.36
2022-07-30T00:29:50.584Z,23.36
2022-07-30T00:34:52.146Z,23.38
2022-07-30T00:39:54.941Z,23.40
2022-07-30T00:44:56.567Z,23.43
2022-07-30T00:50:04.237Z,23.43
2022-07-30T00:55:10.510Z,23.41
2022-07-30T01:00:15.724Z,23.40
2022-07-30T01:05:19.862Z,23.35
2022-07-30T01:10:25.631Z,23.31
2022-07-30T01:15:29.869Z,23.22
2022-07-30T01:20:48.810Z,23.14
2022-07-30T01:26:05.466Z,23.09
2022-07-30T01:31:13.132Z,23.05
2022-07-30T01:36:23.669Z,23.03
2022-07-30T01:41:26.375Z,22.98
2022-07-30T01:46:44.029Z,22.92
2022-07-30T01:52:00.210Z,22.90
2022-07-30T01:57:02.782Z,22.93
2022-07-30T02:02:05.564Z,22.91
2022-07-30T02:07:17.054Z,22.90
2022-07-30T02:12:28.587Z,22.89
2022-07-30T02:17:39.509Z,22.88
2022-07-30T02:22:48.281Z,22.87
2022-07-30T02:27:54.109Z,22.77
2022-07-30T02:33:03.877Z,22.77
2022-07-30T02:38:11.818Z,22.71
2022-07-30T02:43:18.228Z,22.71
2022-07-30T02:48:35.345Z,22.68
2022-07-30T02:53:42.122Z,22.62
2022-07-30T02:58:50.040Z,22.58
2022-07-30T03:03:52.873Z,22.53
2022-07-30T03:08:56.968Z,22.48
2022-07-30T03:13:58.618Z,22.45
2022-07-30T03:19:05.181Z,22.46
2022-07-30T03:24:09.079Z,22.48
2022-07-30T03:29:12.629Z,22.48
2022-07-30T03:34:18.643Z,22.44
2022-07-30T03:39:22.759Z,22.42
2022-07-30T03:44:25.992Z,22.38
2022-07-30T03:49:28.327Z,22.36
2022-07-30T03:54:33.564Z,22.31
2022-07-30T03:59:58.181Z,22.27
2022-07-30T04:05:00.958Z,22.24
2022-07-30T04:10:05.083Z,22.21
2022-07-30T04:16:05.499Z,22.18
2022-07-30T04:20:50.854Z,22.11
2022-07-30T04:25:52.669Z,22.03
2022-07-30T04:30:55.132Z,21.98
2022-07-30T04:35:59.686Z,21.96
2022-07-30T04:41:12.281Z,21.92
2022-07-30T04:46:49.637Z,21.85
2022-07-30T04:51:52.159Z,21.80
2022-07-30T04:57:08.270Z,21.74
2022-07-30T05:02:15.627Z,21.53
2022-07-30T05:07:22.488Z,21.39
2022-07-30T05:12:37.672Z,21.33
2022-07-30T05:17:45.226Z,21.34
2022-07-30T05:22:51.144Z,21.32
2022-07-30T05:27:56.795Z,21.30
2022-07-30T05:32:58.378Z,21.30
2022-07-30T05:38:03.277Z,21.26
2022-07-30T05:43:15.762Z,21.25
2022-07-30T05:48:17.517Z,21.27
2022-07-30T05:53:21.399Z,21.30
2022-07-30T05:58:46.990Z,21.35
2022-07-30T06:03:58.361Z,21.40
2022-07-30T06:09:18.271Z,21.45
2022-07-30T06:14:40.381Z,21.50
2022-07-30T06:19:43.460Z,21.49
2022-07-30T06:24:47.283Z,21.58
2022-07-30T06:29:56.491Z,21.62
2022-07-30T06:35:04.535Z,21.66
2022-07-30T06:40:09.856Z,21.68
2022-07-30T06:45:30.213Z,21.81
2022-07-30T06:50:52.813Z,21.98
2022-07-30T06:55:58.289Z,22.11
2022-07-30T07:01:10.854Z,22.12
2022-07-30T07:06:13.298Z,22.10
2022-07-30T07:11:16.691Z,22.16
2022-07-30T07:16:30.153Z,22.26
2022-07-30T07:21:32.692Z,22.36
2022-07-30T07:26:34.960Z,22.36
2022-07-30T07:32:06.273Z,22.36
2022-07-30T07:37:05.534Z,22.40
2022-07-30T07:42:08.008Z,22.35
2022-07-30T07:47:16.186Z,22.36
2022-07-30T07:52:27.023Z,22.38
2022-07-30T07:57:42.749Z,22.42
2022-07-30T08:02:48.537Z,22.46
2022-07-30T08:07:50.816Z,22.58
2022-07-30T08:13:48.714Z,22.68
2022-07-30T08:18:58.251Z,22.75
2022-07-30T08:24:08.449Z,22.76
2022-07-30T08:29:16.986Z,22.81
2022-07-30T08:34:25.658Z,22.88
2022-07-30T08:39:31.506Z,22.84
2022-07-30T08:44:39.211Z,22.93
2022-07-30T08:49:44.132Z,23.03
2022-07-30T08:54:47.495Z,23.10
2022-07-30T08:59:59.525Z,23.10
2022-07-30T09:05:07.508Z,23.12
2022-07-30T09:10:13.797Z,23.16
2022-07-30T09:15:20.813Z,23.33
2022-07-30T09:20:34.486Z,23.46
2022-07-30T09:25:44.613Z,23.50
2022-07-30T09:31:08.354Z,23.52
2022-07-30T09:36:32.001Z,23.61
2022-07-30T09:41:54.607Z,23.69
2022-07-30T09:46:58.779Z,23.75
2022-07-30T09:52:06.529Z,23.78
2022-07-30T09:57:22.709Z,23.85
2022-07-30T10:02:37.735Z,23.96
2022-07-30T10:08:09.332Z,23.95
2022-07-30T10:13:21.481Z,24.04
2022-07-30T10:18:29.720Z,23.89
2022-07-30T10:23:53.857Z,24.00
2022-07-30T10:29:17.387Z,24.07
2022-07-30T10:34:23.709Z,24.26
2022-07-30T10:39:47.148Z,24.43
2022-07-30T10:44:51.846Z,24.43
2022-07-30T10:50:22.298Z,24.39
2022-07-30T10:55:37.181Z,24.63
2022-07-30T11:00:52.796Z,24.66
2022-07-30T11:06:14.930Z,24.85
2022-07-30T11:11:28.655Z,24.77
2022-07-30T11:16:44.913Z,24.89
2022-07-30T11:21:50.620Z,24.83
2022-07-30T11:26:53.278Z,24.95
2022-07-30T11:32:00.125Z,25.12
2022-07-30T11:37:19.286Z,25.24
2022-07-30T11:42:29.393Z,25.47
2022-07-30T11:47:35.905Z,25.67
2022-07-30T11:52:39.025Z,25.54
2022-07-30T11:57:44.274Z,25.56
2022-07-30T12:02:48.011Z,25.76
2022-07-30T12:07:49.607Z,25.87
2022-07-30T12:12:55.095Z,25.92
2022-07-30T12:18:11.010Z,25.99
2022-07-30T12:23:22.781Z,25.89
2022-07-30T12:28:28.825Z,25.80
2022-07-30T12:33:30.953Z,25.72
2022-07-30T12:38:48.788Z,25.73
2022-07-30T12:43:54.454Z,25.64
2022-07-30T12:49:22.673Z,25.62
2022-07-30T12:54:28.860Z,25.59
2022-07-30T12:59:32.287Z,25.61
2022-07-30T13:04:40.052Z,25.56
2022-07-30T13:10:19.848Z,25.80
2022-07-30T13:15:25.213Z,25.92
2022-07-30T13:20:26.708Z,26.02
2022-07-30T13:25:28.213Z,25.93
2022-07-30T13:30:42.185Z,25.80
2022-07-30T13:35:51.153Z,25.98
2022-07-30T13:40:53.096Z,26.17
2022-07-30T13:45:54.661Z,26.31
2022-07-30T13:51:07.423Z,26.27
2022-07-30T13:56:12.481Z,26.25
2022-07-30T14:01:18.456Z,26.26
2022-07-30T14:06:28.439Z,26.16
2022-07-30T14:11:32.340Z,26.05
2022-07-30T14:16:45.452Z,25.73
2022-07-30T14:21:47.522Z,25.45
2022-07-30T14:26:52.292Z,25.60
2022-07-30T14:31:57.632Z,25.60
2022-07-30T14:37:01.923Z,25.51
2022-07-30T14:42:03.813Z,25.44
2022-07-30T14:47:05.879Z,25.41
2022-07-30T14:52:07.958Z,25.36
2022-07-30T14:57:12.714Z,25.29
2022-07-30T15:02:15.498Z,25.24
2022-07-30T15:07:19.294Z,25.21
2022-07-30T15:12:23.539Z,25.22
2022-07-30T15:17:44.030Z,25.35
2022-07-30T15:22:45.536Z,25.52
2022-07-30T15:27:47.024Z,25.77
2022-07-30T15:32:51.254Z,25.86
2022-07-30T15:37:58.751Z,26.02
2022-07-30T15:43:08.548Z,26.05
2022-07-30T15:48:24.736Z,26.33
2022-07-30T15:53:30.253Z,26.40
2022-07-30T15:58:33.096Z,26.45
2022-07-30T16:03:34.602Z,26.56
2022-07-30T16:08:40.278Z,26.54
2022-07-30T16:13:41.866Z,26.54
2022-07-30T16:18:43.401Z,26.70
2022-07-30T16:23:45.016Z,26.94
2022-07-30T16:28:49.254Z,27.21
2022-07-30T16:33:51.908Z,27.34
2022-07-30T16:38:53.445Z,27.45
2022-07-30T16:43:54.951Z,27.53
2022-07-30T16:48:56.469Z,27.53
2022-07-30T16:54:00.763Z,27.50
2022-07-30T16:59:02.256Z,27.64
2022-07-30T17:04:08.964Z,27.72
2022-07-30T17:09:15.795Z,27.76
2022-07-30T17:14:17.756Z,27.88
2022-07-30T17:19:21.573Z,27.95
2022-07-30T17:24:25.785Z,27.97
2022-07-30T17:29:30.337Z,27.82
2022-07-30T17:34:31.840Z,27.60
2022-07-30T17:40:24.772Z,27.38
2022-07-30T17:45:03.060Z,27.19
2022-07-30T17:50:07.593Z,27.10
2022-07-30T17:55:12.425Z,27.11
2022-07-30T18:00:16.807Z,27.05
2022-07-30T18:05:18.517Z,26.91
2022-07-30T18:10:20.303Z,26.67
2022-07-30T18:15:21.925Z,26.51
2022-07-30T18:20:25.905Z,26.42
2022-07-30T18:25:30.117Z,26.28
2022-07-30T18:30:51.964Z,26.12
2022-07-30T18:35:53.529Z,26.05
2022-07-30T18:41:01.670Z,25.99
2022-07-30T18:46:05.652Z,25.86
2022-07-30T18:51:13.650Z,25.77
2022-07-30T18:56:22.784Z,25.63
2022-07-30T19:01:24.411Z,25.48
2022-07-30T19:06:26.114Z,25.27
2022-07-30T19:11:27.624Z,25.14
2022-07-30T19:16:30.256Z,25.02
2022-07-30T19:21:34.066Z,24.93
2022-07-30T19:26:37.844Z,24.87
2022-07-30T19:31:41.571Z,24.80
2022-07-30T19:36:43.083Z,24.70
2022-07-30T19:41:44.603Z,24.64
2022-07-30T19:46:48.755Z,24.60
2022-07-30T19:52:09.991Z,24.54
2022-07-30T19:57:20.598Z,24.43
2022-07-30T20:02:27.727Z,24.35
2022-07-30T20:07:29.869Z,24.26
2022-07-30T20:12:42.033Z,24.14
2022-07-30T20:17:43.914Z,24.07
2022-07-30T20:22:48.555Z,24.00
2022-07-30T20:27:53.010Z,23.95
2022-07-30T20:32:54.991Z,23.89
2022-07-30T20:38:00.129Z,23.82
2022-07-30T20:43:07.193Z,23.75
2022-07-30T20:48:16.908Z,23.70
2022-07-30T20:53:25.068Z,23.63
2022-07-30T20:58:37.327Z,23.54
2022-07-30T21:03:38.969Z,23.47
2022-07-30T21:08:40.445Z,23.43
2022-07-30T21:13:42.025Z,23.40
2022-07-30T21:18:50.231Z,23.35
2022-07-30T21:23:52.335Z,23.32
2022-07-30T21:28:55.351Z,23.30
2022-07-30T21:33:56.846Z,23.28
2022-07-30T21:39:00.471Z,23.22
2022-07-30T21:44:06.797Z,23.09
2022-07-30T21:49:10.958Z,23.09
2022-07-30T21:54:13.917Z,23.04
2022-07-30T21:59:18.662Z,22.98
2022-07-30T22:04:23.553Z,22.91
2022-07-30T22:09:34.396Z,22.89
2022-07-30T22:14:36.160Z,22.87
2022-07-30T22:19:40.242Z,22.85
2022-07-30T22:24:41.962Z,22.81
2022-07-30T22:29:48.041Z,22.78
2022-07-30T22:34:54.939Z,22.73
2022-07-30T22:40:02.610Z,22.63
2022-07-30T22:45:07.980Z,22.55
2022-07-30T22:50:09.740Z,22.48
2022-07-30T22:55:13.474Z,22.41
2022-07-30T23:00:28.119Z,22.35
2022-07-30T23:05:30.314Z,22.27
2022-07-30T23:10:39.854Z,22.18
2022-07-30T23:15:41.349Z,22.10
2022-07-30T23:20:45.322Z,22.02
2022-07-30T23:25:49.261Z,21.99
2022-07-30T23:30:54.333Z,21.97
2022-07-30T23:36:06.182Z,21.91
2022-07-30T23:41:09.965Z,21.85
2022-07-30T23:46:13.924Z,21.82
2022-07-30T23:51:17.818Z,21.80
2022-07-30T23:56:21.923Z,21.77
